createdAt,value
2022-08-03T00:00:12.333Z,101552.34
2022-08-03T00:02:41.446Z,101556.39
2022-08-03T00:05:11.252Z,101549.59
2022-08-03T00:07:41.187Z,101559.37
2022-08-03T00:10:13.714Z,101550.15
2022-08-03T00:12:43.488Z,101552.61
2022-08-03T00:15:16.474Z,101561.28
2022-08-03T00:17:53.522Z,101565.22
2022-08-03T00:20:17.185Z,101551.94
2022-08-03T00:22:47.258Z,101555.20
2022-08-03T00:25:16.772Z,101548.75
2022-08-03T00:27:47.749Z,101557.62
2022-08-03T00:30:18.091Z,101554.84
2022-08-03T00:32:47.841Z,101557.48
2022-08-03T00:35:36.699Z,101551.36
2022-08-03T00:37:49.690Z,101556.66
2022-08-03T00:40:20.703Z,101551.91
2022-08-03T00:42:56.090Z,101548.38
2022-08-03T00:45:28.293Z,101544.41
2022-08-03T00:47:58.897Z,101548.02
2022-08-03T00:50:31.005Z,101546.30
2022-08-03T00:53:01.615Z,101541.84
2022-08-03T00:55:31.552Z,101545.84
2022-08-03T00:58:04.902Z,101544.17
2022-08-03T01:00:38.754Z,101546.81
2022-08-03T01:03:10.672Z,101542.15
2022-08-03T01:05:55.290Z,101538.27
2022-08-03T01:08:30.801Z,101535.77
2022-08-03T01:11:18.220Z,101532.78
2022-08-03T01:14:18.650Z,101528.03
2022-08-03T01:16:55.633Z,101523.59
2022-08-03T01:19:49.160Z,101517.93
2022-08-03T01:22:30.359Z,101517.93
2022-08-03T01:25:08.740Z,101527.16
2022-08-03T01:27:53.725Z,101525.05
2022-08-03T01:30:26.419Z,101530.00
2022-08-03T01:33:03.694Z,101535.06
2022-08-03T01:35:42.333Z,101526.65
2022-08-03T01:38:15.165Z,101523.73
2022-08-03T01:40:47.175Z,101528.87
2022-08-03T01:43:58.919Z,101523.27
2022-08-03T01:45:55.100Z,101520.70
2022-08-03T01:48:25.697Z,101525.28
2022-08-03T01:50:58.516Z,101516.39
2022-08-03T01:53:30.432Z,101522.38
2022-08-03T01:56:00.936Z,101513.98
2022-08-03T01:58:32.362Z,101517.93
2022-08-03T02:01:03.707Z,101511.44
2022-08-03T02:03:36.551Z,101513.78
2022-08-03T02:07:02.356Z,101491.92
2022-08-03T02:08:44.102Z,101491.92
2022-08-03T02:11:14.417Z,101515.41
2022-08-03T02:13:46.627Z,101516.44
2022-08-03T02:16:17.905Z,101519.22
2022-08-03T02:18:49.407Z,101516.23
2022-08-03T02:21:21.045Z,101516.75
2022-08-03T02:23:52.519Z,101509.44
2022-08-03T02:26:25.139Z,101514.42
2022-08-03T02:28:57.602Z,101509.23
2022-08-03T02:31:32.449Z,101515.41
2022-08-03T02:34:05.414Z,101514.41
2022-08-03T02:36:39.265Z,101508.60
2022-08-03T02:39:11.933Z,101511.47
2022-08-03T02:41:53.077Z,101508.05
2022-08-03T02:44:27.227Z,101508.59
2022-08-03T02:47:01.052Z,101505.61
2022-08-03T02:49:40.953Z,101505.83
2022-08-03T02:52:13.096Z,101502.09
2022-08-03T02:54:42.225Z,101493.77
2022-08-03T02:57:14.529Z,101492.70
2022-08-03T02:59:45.548Z,101495.66
2022-08-03T03:02:17.234Z,101495.66
2022-08-03T03:04:58.869Z,101498.14
2022-08-03T03:07:20.877Z,101493.27
2022-08-03T03:09:52.173Z,101493.97
2022-08-03T03:12:23.286Z,101496.81
2022-08-03T03:14:53.076Z,101494.27
2022-08-03T03:17:23.689Z,101493.72
2022-08-03T03:19:54.696Z,101490.09
2022-08-03T03:22:25.313Z,101494.87
2022-08-03T03:24:56.523Z,101472.35
2022-08-03T03:27:28.115Z,101472.35
2022-08-03T03:29:59.900Z,101493.44
2022-08-03T03:32:30.447Z,101491.38
2022-08-03T03:35:00.868Z,101489.11
2022-08-03T03:37:30.458Z,101490.07
2022-08-03T03:40:00.321Z,101495.64
2022-08-03T03:42:30.819Z,101484.83
2022-08-03T03:45:02.337Z,101492.27
2022-08-03T03:47:33.098Z,101484.47
2022-08-03T03:50:07.259Z,101485.64
2022-08-03T03:52:37.511Z,101483.39
2022-08-03T03:55:08.365Z,101482.09
2022-08-03T03:57:38.146Z,101483.71
2022-08-03T04:00:10.159Z,101485.67
2022-08-03T04:02:40.695Z,101486.00
2022-08-03T04:05:28.223Z,101483.83
2022-08-03T04:08:24.678Z,101489.73
2022-08-03T04:11:29.215Z,101492.77
2022-08-03T04:14:01.895Z,101500.95
2022-08-03T04:16:34.380Z,101490.70
2022-08-03T04:19:07.510Z,101496.57
2022-08-03T04:21:40.313Z,101499.83
2022-08-03T04:24:12.514Z,101504.70
2022-08-03T04:26:44.121Z,101502.90
2022-08-03T04:29:15.340Z,101504.28
2022-08-03T04:31:46.953Z,101501.35
2022-08-03T04:34:17.265Z,101500.56
2022-08-03T04:36:50.222Z,101494.91
2022-08-03T04:39:23.265Z,101497.11
2022-08-03T04:42:07.666Z,101494.27
2022-08-03T04:44:29.250Z,101495.40
2022-08-03T04:47:00.540Z,101492.72
2022-08-03T04:49:31.405Z,101492.27
2022-08-03T04:52:01.929Z,101498.44
2022-08-03T04:54:32.250Z,101506.47
2022-08-03T04:57:02.018Z,101506.86
2022-08-03T04:59:31.798Z,101503.03
2022-08-03T05:02:01.721Z,101512.69
2022-08-03T05:04:31.690Z,101506.56
2022-08-03T05:07:11.736Z,101517.53
2022-08-03T05:09:50.170Z,101501.84
2022-08-03T05:12:07.311Z,101501.84
2022-08-03T05:14:38.697Z,101520.46
2022-08-03T05:17:09.412Z,101521.56
2022-08-03T05:19:39.194Z,101522.61
2022-08-03T05:22:10.489Z,101521.06
2022-08-03T05:24:40.269Z,101528.63
2022-08-03T05:27:10.710Z,101532.45
2022-08-03T05:29:41.345Z,101532.26
2022-08-03T05:32:12.647Z,101530.77
2022-08-03T05:34:42.432Z,101533.57
2022-08-03T05:37:12.768Z,101533.57
2022-08-03T05:39:42.540Z,101526.91
2022-08-03T05:42:12.372Z,101526.91
2022-08-03T05:44:42.152Z,101530.52
2022-08-03T05:47:11.917Z,101531.27
2022-08-03T05:49:41.510Z,101532.39
2022-08-03T05:52:14.658Z,101531.43
2022-08-03T05:54:56.678Z,101541.89
2022-08-03T05:57:14.875Z,101540.42
2022-08-03T05:59:53.922Z,101542.64
2022-08-03T06:02:16.415Z,101542.69
2022-08-03T06:04:46.915Z,101547.16
2022-08-03T06:07:16.694Z,101542.35
2022-08-03T06:10:36.157Z,101537.02
2022-08-03T06:12:18.337Z,101540.81
2022-08-03T06:14:48.335Z,101536.16
2022-08-03T06:17:18.102Z,101539.58
2022-08-03T06:19:47.888Z,101538.23
2022-08-03T06:22:17.825Z,101539.96
2022-08-03T06:24:53.527Z,101541.48
2022-08-03T06:27:20.405Z,101548.48
2022-08-03T06:29:51.874Z,101547.48
2022-08-03T06:32:22.721Z,101549.25
2022-08-03T06:34:52.496Z,101549.25
2022-08-03T06:37:23.138Z,101555.45
2022-08-03T06:39:53.377Z,101555.73
2022-08-03T06:42:23.219Z,101552.37
2022-08-03T06:44:54.999Z,101562.67
2022-08-03T06:47:24.781Z,101556.56
2022-08-03T06:50:16.151Z,101559.88
2022-08-03T06:52:37.260Z,101555.20
2022-08-03T06:54:57.209Z,101533.75
2022-08-03T06:57:27.183Z,101533.75
2022-08-03T07:00:09.050Z,101550.19
2022-08-03T07:02:30.367Z,101553.27
2022-08-03T07:05:00.428Z,101554.39
2022-08-03T07:07:30.271Z,101556.66
2022-08-03T07:10:00.136Z,101550.45
2022-08-03T07:12:32.641Z,101556.30
2022-08-03T07:15:04.062Z,101560.20
2022-08-03T07:17:35.475Z,101553.91
2022-08-03T07:20:09.206Z,101553.41
2022-08-03T07:22:38.950Z,101563.90
2022-08-03T07:25:09.377Z,101563.28
2022-08-03T07:27:39.373Z,101558.74
2022-08-03T07:30:11.838Z,101566.56
2022-08-03T07:32:49.864Z,101565.22
2022-08-03T07:35:24.226Z,101555.56
2022-08-03T07:37:54.124Z,101555.56
2022-08-03T07:40:17.673Z,101566.40
2022-08-03T07:42:47.445Z,101555.75
2022-08-03T07:45:18.997Z,101564.08
2022-08-03T07:47:53.486Z,101561.28
2022-08-03T07:50:19.985Z,101558.92
2022-08-03T07:52:51.614Z,101560.89
2022-08-03T07:55:23.382Z,101557.73
2022-08-03T07:58:12.183Z,101563.34
2022-08-03T08:00:42.331Z,101556.04
2022-08-03T08:03:13.136Z,101546.57
2022-08-03T08:05:42.969Z,101546.57
2022-08-03T08:08:13.742Z,101562.66
2022-08-03T08:10:57.886Z,101563.43
2022-08-03T08:13:14.989Z,101558.30
2022-08-03T08:15:44.762Z,101562.36
2022-08-03T08:18:16.140Z,101554.83
2022-08-03T08:20:45.914Z,101552.98
2022-08-03T08:23:42.931Z,101555.73
2022-08-03T08:25:47.163Z,101557.16
2022-08-03T08:28:32.936Z,101558.92
2022-08-03T08:30:53.586Z,101554.08
2022-08-03T08:33:24.132Z,101555.61
2022-08-03T08:35:55.023Z,101550.24
2022-08-03T08:38:25.065Z,101550.24
2022-08-03T08:40:57.123Z,101550.50
2022-08-03T08:43:26.896Z,101550.67
2022-08-03T08:45:59.710Z,101556.84
2022-08-03T08:48:31.893Z,101558.21
2022-08-03T08:51:02.490Z,101564.66
2022-08-03T08:53:35.217Z,101553.25
2022-08-03T08:56:08.606Z,101556.75
2022-08-03T08:58:44.102Z,101565.25
2022-08-03T09:01:13.766Z,101557.90
2022-08-03T09:03:43.640Z,101555.34
2022-08-03T09:06:13.422Z,101556.88
2022-08-03T09:08:43.331Z,101552.98
2022-08-03T09:11:13.186Z,101550.68
2022-08-03T09:13:43.618Z,101546.60
2022-08-03T09:16:18.626Z,101551.31
2022-08-03T09:18:51.026Z,101547.46
2022-08-03T09:21:34.196Z,101543.45
2022-08-03T09:24:02.724Z,101548.69
2022-08-03T09:26:31.664Z,101538.70
2022-08-03T09:29:13.153Z,101525.92
2022-08-03T09:31:43.869Z,101525.92
2022-08-03T09:34:16.651Z,101543.92
2022-08-03T09:36:52.229Z,101550.87
2022-08-03T09:39:28.630Z,101551.78
2022-08-03T09:42:10.224Z,101548.48
2022-08-03T09:44:42.605Z,101541.38
2022-08-03T09:47:14.440Z,101532.82
2022-08-03T09:49:46.272Z,101532.82
2022-08-03T09:52:39.438Z,101548.88
2022-08-03T09:54:53.676Z,101545.70
2022-08-03T09:57:25.291Z,101548.64
2022-08-03T10:00:04.449Z,101556.37
2022-08-03T10:02:29.688Z,101550.18
2022-08-03T10:04:59.455Z,101545.03
2022-08-03T10:07:29.309Z,101546.42
2022-08-03T10:10:30.090Z,101541.13
2022-08-03T10:12:32.755Z,101545.42
2022-08-03T10:15:03.302Z,101528.25
2022-08-03T10:17:36.198Z,101540.68
2022-08-03T10:20:07.575Z,101538.98
2022-08-03T10:22:39.727Z,101543.60
2022-08-03T10:25:12.519Z,101546.96
2022-08-03T10:27:45.645Z,101541.79
2022-08-03T10:30:15.741Z,101537.94
2022-08-03T10:32:50.978Z,101543.62
2022-08-03T10:35:23.376Z,101540.18
2022-08-03T10:38:05.307Z,101538.62
2022-08-03T10:40:55.819Z,101538.91
2022-08-03T10:43:16.312Z,101540.62
2022-08-03T10:45:48.032Z,101528.24
2022-08-03T10:48:19.466Z,101527.61
2022-08-03T10:50:51.488Z,101524.09
2022-08-03T10:53:35.916Z,101505.34
2022-08-03T10:56:44.372Z,101505.34
2022-08-03T10:58:58.301Z,101510.08
2022-08-03T11:01:58.645Z,101508.95
2022-08-03T11:04:25.033Z,101497.64
2022-08-03T11:07:18.615Z,101495.97
2022-08-03T11:09:54.098Z,101497.59
2022-08-03T11:12:31.425Z,101490.95
2022-08-03T11:15:09.305Z,101492.76
2022-08-03T11:17:46.349Z,101489.91
2022-08-03T11:20:12.916Z,101500.56
2022-08-03T11:22:54.337Z,101485.15
2022-08-03T11:25:54.840Z,101483.92
2022-08-03T11:28:14.382Z,101485.58
2022-08-03T11:30:44.438Z,101489.32
2022-08-03T11:33:17.259Z,101488.69
2022-08-03T11:36:02.480Z,101483.48
2022-08-03T11:38:32.288Z,101487.23
2022-08-03T11:41:02.534Z,101491.06
2022-08-03T11:43:36.730Z,101487.09
2022-08-03T11:46:11.436Z,101492.55
2022-08-03T11:48:43.560Z,101490.34
2022-08-03T11:51:27.847Z,101498.41
2022-08-03T11:53:59.629Z,101497.14
2022-08-03T11:56:31.792Z,101496.31
2022-08-03T11:59:20.314Z,101493.89
2022-08-03T12:01:33.039Z,101499.55
2022-08-03T12:04:07.264Z,101500.76
2022-08-03T12:06:38.861Z,101495.89
2022-08-03T12:09:21.310Z,101492.06
2022-08-03T12:11:59.754Z,101492.73
2022-08-03T12:14:49.277Z,101492.38
2022-08-03T12:16:54.700Z,101493.89
2022-08-03T12:19:24.481Z,101493.30
2022-08-03T12:21:56.756Z,101490.36
2022-08-03T12:24:27.438Z,101492.81
2022-08-03T12:27:00.073Z,101468.41
2022-08-03T12:29:30.041Z,101468.41
2022-08-03T12:31:59.524Z,101494.64
2022-08-03T12:34:49.680Z,101483.28
2022-08-03T12:37:23.869Z,101491.78
2022-08-03T12:40:05.201Z,101492.97
2022-08-03T12:42:34.736Z,101487.58
2022-08-03T12:45:27.819Z,101489.43
2022-08-03T12:48:00.035Z,101488.13
2022-08-03T12:50:32.050Z,101488.41
2022-08-03T12:53:04.538Z,101488.75
2022-08-03T12:55:57.855Z,101496.06
2022-08-03T12:58:13.666Z,101492.71
2022-08-03T13:00:42.184Z,101486.58
2022-08-03T13:03:39.311Z,101489.20
2022-08-03T13:05:47.088Z,101487.41
2022-08-03T13:08:25.378Z,101479.87
2022-08-03T13:10:55.198Z,101492.27
2022-08-03T13:13:41.187Z,101489.28
2022-08-03T13:16:15.786Z,101485.08
2022-08-03T13:18:42.982Z,101473.58
2022-08-03T13:21:17.893Z,101481.61
2022-08-03T13:23:47.953Z,101472.86
2022-08-03T13:26:17.726Z,101476.02
2022-08-03T13:28:47.487Z,101480.00
2022-08-03T13:31:17.259Z,101475.62
2022-08-03T13:33:47.024Z,101470.34
2022-08-03T13:36:17.362Z,101476.77
2022-08-03T13:38:47.135Z,101482.38
2022-08-03T13:41:16.975Z,101482.78
2022-08-03T13:43:47.225Z,101475.38
2022-08-03T13:46:17.577Z,101481.53
2022-08-03T13:48:47.344Z,101479.85
2022-08-03T13:51:22.608Z,101479.97
2022-08-03T13:53:48.295Z,101475.88
2022-08-03T13:56:18.116Z,101478.64
2022-08-03T13:58:47.890Z,101477.64
2022-08-03T14:01:29.653Z,101472.16
2022-08-03T14:03:51.402Z,101466.75
2022-08-03T14:06:23.618Z,101475.40
2022-08-03T14:08:56.785Z,101479.52
2022-08-03T14:11:25.774Z,101474.66
2022-08-03T14:13:57.300Z,101468.63
2022-08-03T14:16:27.010Z,101461.44
2022-08-03T14:18:56.780Z,101461.61
2022-08-03T14:21:27.743Z,101463.50
2022-08-03T14:23:57.503Z,101457.36
2022-08-03T14:26:27.661Z,101458.55
2022-08-03T14:28:57.428Z,101455.27
2022-08-03T14:32:11.877Z,101442.06
2022-08-03T14:33:58.807Z,101445.03
2022-08-03T14:36:28.641Z,101445.11
2022-08-03T14:39:01.332Z,101439.49
2022-08-03T14:41:29.937Z,101432.73
2022-08-03T14:44:02.070Z,101429.09
2022-08-03T14:46:32.079Z,101432.69
2022-08-03T14:50:34.339Z,101421.05
2022-08-03T14:51:33.310Z,101419.95
2022-08-03T14:54:03.371Z,101423.98
2022-08-03T14:56:33.154Z,101423.94
2022-08-03T14:59:02.919Z,101415.34
2022-08-03T15:02:04.776Z,101407.45
2022-08-03T15:04:05.027Z,101407.86
2022-08-03T15:06:35.133Z,101410.33
2022-08-03T15:11:36.973Z,101410.16
2022-08-03T15:14:09.522Z,101403.39
2022-08-03T15:16:39.836Z,101412.70
2022-08-03T15:20:05.564Z,101399.17
2022-08-03T15:21:47.342Z,101404.78
2022-08-03T15:24:12.251Z,101411.53
2022-08-03T15:26:42.112Z,101405.97
2022-08-03T15:30:05.159Z,101401.59
2022-08-03T15:31:44.979Z,101373.33
2022-08-03T15:34:14.761Z,101373.33
2022-08-03T15:36:44.812Z,101391.42
2022-08-03T15:39:14.921Z,101377.94
2022-08-03T15:41:45.043Z,101390.20
2022-08-03T15:44:14.496Z,101381.00
2022-08-03T15:46:44.276Z,101389.70
2022-08-03T15:49:14.206Z,101369.03
2022-08-03T15:51:43.983Z,101369.03
2022-08-03T15:54:13.523Z,101384.58
2022-08-03T15:56:44.940Z,101387.94
2022-08-03T15:59:14.407Z,101382.09
2022-08-03T16:01:44.386Z,101375.48
2022-08-03T16:04:14.138Z,101377.18
2022-08-03T16:06:43.905Z,101374.38
2022-08-03T16:09:24.358Z,101372.20
2022-08-03T16:11:45.144Z,101368.77
2022-08-03T16:14:32.664Z,101368.77
2022-08-03T16:16:46.607Z,101371.67
2022-08-03T16:19:16.639Z,101365.50
2022-08-03T16:21:48.184Z,101364.38
2022-08-03T16:24:25.869Z,101350.48
2022-08-03T16:26:49.454Z,101350.48
2022-08-03T16:29:23.140Z,101366.78
2022-08-03T16:31:51.349Z,101365.00
2022-08-03T16:34:21.395Z,101361.55
2022-08-03T16:36:51.174Z,101365.79
2022-08-03T16:39:21.007Z,101351.77
2022-08-03T16:41:54.029Z,101357.65
2022-08-03T16:44:22.408Z,101361.05
2022-08-03T16:46:52.251Z,101355.82
2022-08-03T16:49:54.876Z,101352.81
2022-08-03T16:51:53.364Z,101354.86
2022-08-03T16:54:23.895Z,101338.30
2022-08-03T16:56:55.439Z,101347.62
2022-08-03T16:59:36.377Z,101356.86
2022-08-03T17:01:58.096Z,101352.02
2022-08-03T17:04:29.340Z,101353.13
2022-08-03T17:07:00.089Z,101350.94
2022-08-03T17:09:38.252Z,101352.56
2022-08-03T17:12:03.123Z,101348.52
2022-08-03T17:14:33.158Z,101345.19
2022-08-03T17:17:05.955Z,101353.13
2022-08-03T17:19:39.944Z,101341.64
2022-08-03T17:22:17.758Z,101344.36
2022-08-03T17:24:50.104Z,101345.93
2022-08-03T17:28:50.746Z,101349.79
2022-08-03T17:29:57.196Z,101354.73
2022-08-03T17:32:30.142Z,101356.40
2022-08-03T17:35:00.276Z,101352.19
2022-08-03T17:37:57.440Z,101327.00
2022-08-03T17:40:03.759Z,101327.00
2022-08-03T17:42:35.183Z,101349.54
2022-08-03T17:45:08.358Z,101346.78
2022-08-03T17:47:42.087Z,101350.45
2022-08-03T17:50:24.322Z,101350.70
2022-08-03T17:52:48.620Z,101353.25
2022-08-03T17:55:56.440Z,101351.96
2022-08-03T17:58:03.413Z,101353.41
2022-08-03T18:00:53.186Z,101356.44
2022-08-03T18:03:56.989Z,101346.91
2022-08-03T18:06:12.945Z,101355.09
2022-08-03T18:08:48.249Z,101350.92
2022-08-03T18:11:21.920Z,101354.80
2022-08-03T18:14:16.297Z,101346.38
2022-08-03T18:16:51.900Z,101353.77
2022-08-03T18:20:01.767Z,101353.73
2022-08-03T18:22:03.548Z,101355.72
2022-08-03T18:24:30.435Z,101354.91
2022-08-03T18:27:04.237Z,101353.27
2022-08-03T18:29:36.964Z,101353.67
2022-08-03T18:32:13.667Z,101353.88
2022-08-03T18:37:23.010Z,101356.77
2022-08-03T18:39:52.716Z,101351.38
2022-08-03T18:42:26.470Z,101354.88
2022-08-03T18:44:56.343Z,101350.19
2022-08-03T18:47:52.488Z,101353.45
2022-08-03T18:50:30.749Z,101352.85
2022-08-03T18:53:19.726Z,101357.24
2022-08-03T18:56:02.670Z,101353.64
2022-08-03T18:58:38.794Z,101337.05
2022-08-03T19:02:00.639Z,101337.05
2022-08-03T19:03:54.114Z,101353.00
2022-08-03T19:06:26.442Z,101352.75
2022-08-03T19:08:58.679Z,101364.44
2022-08-03T19:12:13.304Z,101358.14
2022-08-03T19:14:05.639Z,101366.62
2022-08-03T19:16:39.533Z,101364.52
2022-08-03T19:19:14.483Z,101365.95
2022-08-03T19:21:46.004Z,101358.27
2022-08-03T19:24:21.678Z,101360.50
2022-08-03T19:26:55.408Z,101365.77
2022-08-03T19:29:57.904Z,101364.75
2022-08-03T19:31:59.978Z,101362.20
2022-08-03T19:34:32.632Z,101368.73
2022-08-03T19:37:03.336Z,101374.17
2022-08-03T19:39:33.705Z,101374.91
2022-08-03T19:42:12.169Z,101369.22
2022-08-03T19:44:44.962Z,101377.77
2022-08-03T19:47:30.005Z,101378.89
2022-08-03T19:50:06.001Z,101377.64
2022-08-03T19:52:35.651Z,101378.02
2022-08-03T19:55:12.098Z,101380.75
2022-08-03T19:57:45.866Z,101380.59
2022-08-03T20:00:17.617Z,101373.02
2022-08-03T20:02:50.856Z,101374.84
2022-08-03T20:05:20.741Z,101375.77
2022-08-03T20:07:53.497Z,101377.77
2022-08-03T20:10:23.215Z,101375.14
2022-08-03T20:12:54.637Z,101377.59
2022-08-03T20:15:31.340Z,101374.14
2022-08-03T20:17:58.616Z,101375.92
2022-08-03T20:20:36.409Z,101373.83
2022-08-03T20:23:10.029Z,101369.72
2022-08-03T20:25:57.016Z,101374.02
2022-08-03T20:28:17.326Z,101370.80
2022-08-03T20:30:47.721Z,101368.54
2022-08-03T20:33:18.787Z,101368.54
2022-08-03T20:35:50.541Z,101372.19
2022-08-03T20:38:20.437Z,101370.48
2022-08-03T20:40:51.916Z,101373.48
2022-08-03T20:43:23.326Z,101374.12
2022-08-03T20:45:58.975Z,101380.41
2022-08-03T20:48:26.272Z,101376.70
2022-08-03T20:50:56.463Z,101383.71
2022-08-03T20:53:59.796Z,101379.80
2022-08-03T20:56:02.347Z,101381.52
2022-08-03T20:58:33.504Z,101377.11
2022-08-03T21:01:03.840Z,101375.27
2022-08-03T21:03:40.896Z,101370.52
2022-08-03T21:06:08.784Z,101380.99
2022-08-03T21:08:46.906Z,101376.73
2022-08-03T21:11:15.283Z,101377.25
2022-08-03T21:12:58.523Z,101353.94
2022-08-03T21:13:53.915Z,101374.22
2022-08-03T21:16:26.959Z,101372.34
2022-08-03T21:18:59.535Z,101375.45
2022-08-03T21:21:32.411Z,101360.30
2022-08-03T21:24:04.598Z,101360.30
2022-08-03T21:26:37.213Z,101358.72
2022-08-03T21:29:08.485Z,101358.44
2022-08-03T21:31:40.058Z,101356.80
2022-08-03T21:34:11.662Z,101352.86
2022-08-03T21:36:41.511Z,101357.09
2022-08-03T21:39:12.470Z,101345.75
2022-08-03T21:41:42.600Z,101341.52
2022-08-03T21:44:13.474Z,101327.64
2022-08-03T21:46:44.881Z,101336.89
2022-08-03T21:50:05.892Z,101341.25
2022-08-03T21:51:48.475Z,101318.47
2022-08-03T21:54:20.124Z,101318.47
2022-08-03T21:56:51.906Z,101335.33
2022-08-03T21:59:23.922Z,101334.54
2022-08-03T22:01:55.167Z,101337.33
2022-08-03T22:04:50.085Z,101336.24
2022-08-03T22:06:59.324Z,101330.93
2022-08-03T22:09:29.462Z,101330.09
2022-08-03T22:11:59.234Z,101332.55
2022-08-03T22:14:29.042Z,101328.23
2022-08-03T22:16:58.883Z,101328.09
2022-08-03T22:19:28.713Z,101326.87
2022-08-03T22:21:59.933Z,101326.61
2022-08-03T22:24:32.606Z,101322.04
2022-08-03T22:27:21.409Z,101331.48
2022-08-03T22:29:52.227Z,101331.06
2022-08-03T22:32:22.566Z,101331.79
2022-08-03T22:34:53.751Z,101333.19
2022-08-03T22:37:26.635Z,101336.76
2022-08-03T22:39:58.365Z,101334.71
2022-08-03T22:42:28.284Z,101335.45
2022-08-03T22:44:58.052Z,101332.75
2022-08-03T22:47:28.461Z,101331.61
2022-08-03T22:50:31.672Z,101323.45
2022-08-03T22:52:31.366Z,101328.22
2022-08-03T22:55:03.341Z,101307.29
2022-08-03T22:57:34.709Z,101307.29
2022-08-03T23:00:09.150Z,101323.36
2022-08-03T23:02:40.894Z,101324.50
2022-08-03T23:06:00.650Z,101323.67
2022-08-03T23:07:51.490Z,101316.77
2022-08-03T23:10:21.385Z,101318.64
2022-08-03T23:12:51.591Z,101312.61
2022-08-03T23:15:26.145Z,101318.12
2022-08-03T23:17:58.598Z,101312.97
2022-08-03T23:20:29.456Z,101317.25
2022-08-03T23:23:00.636Z,101309.91
2022-08-03T23:25:30.555Z,101309.73
2022-08-03T23:28:05.512Z,101312.48
2022-08-03T23:30:36.437Z,101314.39
2022-08-03T23:33:09.570Z,101314.95
2022-08-03T23:36:22.581Z,101314.47
2022-08-03T23:38:31.312Z,101317.37
2022-08-03T23:41:03.396Z,101311.86
2022-08-03T23:43:46.989Z,101307.36
2022-08-03T23:46:10.388Z,101303.73
2022-08-03T23:48:40.150Z,101302.04
2022-08-03T23:51:31.939Z,101302.47
2022-08-03T23:54:22.632Z,101303.58
2022-08-03T23:57:10.178Z,101304.30
2022-08-03T23:59:42.986Z,101298.05
